Pittsburgh, Pennsylvania
Traffic Map
Current Weather Conditions
Pittsburgh, Pennsylvania
Overcast
Overcast
24°
Feels Like: 11°
Wind Chill: 11° Ceiling: 1600
Heat Index: 24° Visibility: 10mi
Dew Point: 15° Wind: 15mph
Humidity: 69% Direction: 250° (WSW)
Pressure: 30.35in Gusts: 23mph
Raw Report DataKAGC 091553Z 25013G20KT 10SM OVC016 M04/M09 A3035 RMK AO2 SLP300 T10441094
Traffic Incident Summary
Active as of:
Severity:
Category:
InformationThere was an issue retrieving the traffic information for this location. Please try a different location or try again shortly.
Advertisements
Track Severe Weather on mobile